createdAt,value
2023-01-25T00:02:01.234Z,54.33
2023-01-25T00:04:28.401Z,55.45
2023-01-25T00:06:55.253Z,51.92
2023-01-25T00:09:24.442Z,60.78
2023-01-25T00:11:51.442Z,46.95
2023-01-25T00:14:18.040Z,51.25
2023-01-25T00:16:44.825Z,44.80
2023-01-25T00:19:12.000Z,43.75
2023-01-25T00:21:39.100Z,43.45
2023-01-25T00:24:11.860Z,44.67
2023-01-25T00:26:44.068Z,45.28
2023-01-25T00:29:14.151Z,52.55
2023-01-25T00:31:45.079Z,42.42
2023-01-25T00:34:29.834Z,39.78
2023-01-25T00:37:12.979Z,40.42
2023-01-25T00:39:39.745Z,41.00
2023-01-25T00:42:10.843Z,41.80
2023-01-25T00:44:38.681Z,44.53
2023-01-25T00:47:05.493Z,41.78
2023-01-25T00:49:33.532Z,40.75
2023-01-25T00:52:00.476Z,46.67
2023-01-25T00:54:27.178Z,39.60
2023-01-25T00:56:56.320Z,38.95
2023-01-25T00:59:24.540Z,40.47
2023-01-25T01:01:52.313Z,40.22
2023-01-25T01:04:19.903Z,44.92
2023-01-25T01:06:46.883Z,37.63
2023-01-25T01:09:15.761Z,47.67
2023-01-25T01:11:43.018Z,45.08
2023-01-25T01:14:10.117Z,42.80
2023-01-25T01:16:36.798Z,40.60
2023-01-25T01:19:03.936Z,41.33
2023-01-25T01:21:30.560Z,47.45
2023-01-25T01:23:57.351Z,46.20
2023-01-25T01:26:24.685Z,43.22
2023-01-25T01:28:51.208Z,40.08
2023-01-25T01:31:21.633Z,43.92
2023-01-25T01:33:51.258Z,42.67
2023-01-25T01:36:20.148Z,42.47
2023-01-25T01:38:47.017Z,44.25
2023-01-25T01:41:15.251Z,45.10
2023-01-25T01:43:42.987Z,42.83
2023-01-25T01:46:13.854Z,47.70
2023-01-25T01:48:44.020Z,42.38
2023-01-25T01:51:24.753Z,41.60
2023-01-25T01:53:58.115Z,45.75
2023-01-25T01:56:32.274Z,44.38
2023-01-25T01:59:00.245Z,43.75
2023-01-25T02:01:27.645Z,46.35
2023-01-25T02:03:55.392Z,44.58
2023-01-25T02:06:31.476Z,43.13
2023-01-25T02:08:58.658Z,44.50
2023-01-25T02:11:27.355Z,47.35
2023-01-25T02:13:56.040Z,42.13
2023-01-25T02:16:25.768Z,42.33
2023-01-25T02:18:54.120Z,38.45
2023-01-25T02:21:23.409Z,42.90
2023-01-25T02:24:07.145Z,53.13
2023-01-25T02:26:36.402Z,60.60
2023-01-25T02:29:06.164Z,58.65
2023-01-25T02:31:33.127Z,60.90
2023-01-25T02:33:59.857Z,56.05
2023-01-25T02:36:30.946Z,49.38
2023-01-25T02:39:03.923Z,49.85
2023-01-25T02:41:32.562Z,59.05
2023-01-25T02:44:00.655Z,68.53
2023-01-25T02:46:31.707Z,66.22
2023-01-25T02:49:00.033Z,50.22
2023-01-25T02:51:28.436Z,59.17
2023-01-25T02:53:55.977Z,52.97
2023-01-25T02:56:23.218Z,51.97
2023-01-25T02:58:50.031Z,50.58
2023-01-25T03:01:17.625Z,49.38
2023-01-25T03:03:44.271Z,48.97
2023-01-25T03:06:11.162Z,48.47
2023-01-25T03:08:37.898Z,49.20
2023-01-25T03:11:06.687Z,51.88
2023-01-25T03:13:34.420Z,54.72
2023-01-25T03:16:04.027Z,55.22
2023-01-25T03:18:30.952Z,49.13
2023-01-25T03:21:03.768Z,53.38
2023-01-25T03:23:30.304Z,48.72
2023-01-25T03:26:06.096Z,48.03
2023-01-25T03:28:32.723Z,48.80
2023-01-25T03:30:59.407Z,49.88
2023-01-25T03:33:26.030Z,50.45
2023-01-25T03:35:53.809Z,51.97
2023-01-25T03:38:20.807Z,47.08
2023-01-25T03:40:47.910Z,49.35
2023-01-25T03:43:14.862Z,56.88
2023-01-25T03:45:41.654Z,57.17
2023-01-25T03:48:08.220Z,61.63
2023-01-25T03:50:34.851Z,51.08
2023-01-25T03:53:07.062Z,62.40
2023-01-25T03:55:34.544Z,54.30
2023-01-25T03:58:01.318Z,55.30
2023-01-25T04:00:27.948Z,50.90
2023-01-25T04:02:54.515Z,47.72
2023-01-25T04:05:21.173Z,50.65
2023-01-25T04:07:47.732Z,51.00
2023-01-25T04:10:14.332Z,50.92
2023-01-25T04:12:41.017Z,45.47
2023-01-25T04:15:08.628Z,42.88
2023-01-25T04:17:35.352Z,50.05
2023-01-25T04:20:02.009Z,46.40
2023-01-25T04:22:28.584Z,48.15
2023-01-25T04:24:58.301Z,46.50
2023-01-25T04:27:28.212Z,43.85
2023-01-25T04:29:54.771Z,47.25
2023-01-25T04:32:21.440Z,54.58
2023-01-25T04:34:48.050Z,49.97
2023-01-25T04:37:14.639Z,45.97
2023-01-25T04:39:41.256Z,48.30
2023-01-25T04:42:07.803Z,45.45
2023-01-25T04:44:34.364Z,44.97
2023-01-25T04:47:01.008Z,43.05
2023-01-25T04:49:27.571Z,43.47
2023-01-25T04:51:54.201Z,48.97
2023-01-25T04:54:20.785Z,47.70
2023-01-25T04:56:47.318Z,43.47
2023-01-25T04:59:13.904Z,49.25
2023-01-25T05:01:40.505Z,57.28
2023-01-25T05:04:07.318Z,59.42
2023-01-25T05:06:33.948Z,56.13
2023-01-25T05:09:00.783Z,62.83
2023-01-25T05:11:27.436Z,61.65
2023-01-25T05:13:54.905Z,60.25
2023-01-25T05:16:21.713Z,64.82
2023-01-25T05:18:49.393Z,57.90
2023-01-25T05:21:31.427Z,46.25
2023-01-25T05:23:58.564Z,47.97
2023-01-25T05:26:40.476Z,52.45
2023-01-25T05:29:07.115Z,51.33
2023-01-25T05:31:33.782Z,53.70
2023-01-25T05:34:00.376Z,51.97
2023-01-25T05:36:27.161Z,54.80
2023-01-25T05:38:53.742Z,50.22
2023-01-25T05:41:20.373Z,46.67
2023-01-25T05:43:52.244Z,45.05
2023-01-25T05:46:18.878Z,45.60
2023-01-25T05:48:47.824Z,52.08
2023-01-25T05:51:14.424Z,43.78
2023-01-25T05:53:40.995Z,45.97
2023-01-25T05:56:10.362Z,46.60
2023-01-25T05:58:37.998Z,49.70
2023-01-25T06:01:06.765Z,45.33
2023-01-25T06:03:34.083Z,43.58
2023-01-25T06:06:02.969Z,42.80
2023-01-25T06:08:31.742Z,45.90
2023-01-25T06:10:58.888Z,41.17
2023-01-25T06:13:25.652Z,43.25
2023-01-25T06:15:54.836Z,46.00
2023-01-25T06:18:22.492Z,46.20
2023-01-25T06:20:49.078Z,43.50
2023-01-25T06:23:15.631Z,46.13
2023-01-25T06:25:42.455Z,47.88
2023-01-25T06:28:09.164Z,44.75
2023-01-25T06:30:35.983Z,48.08
2023-01-25T06:33:02.798Z,51.53
2023-01-25T06:35:32.239Z,44.40
2023-01-25T06:37:59.900Z,47.17
2023-01-25T06:40:28.034Z,51.72
2023-01-25T06:42:55.002Z,51.13
2023-01-25T06:45:21.549Z,49.80
2023-01-25T06:47:49.648Z,47.65
2023-01-25T06:50:16.348Z,47.75
2023-01-25T06:52:42.917Z,46.90
2023-01-25T06:55:13.822Z,47.28
2023-01-25T06:57:40.417Z,54.97
2023-01-25T07:00:07.832Z,43.72
2023-01-25T07:02:34.485Z,46.90
2023-01-25T07:05:01.066Z,42.38
2023-01-25T07:07:27.687Z,47.47
2023-01-25T07:09:54.307Z,46.28
2023-01-25T07:12:22.235Z,51.83
2023-01-25T07:14:49.574Z,46.40
2023-01-25T07:17:16.159Z,46.78
2023-01-25T07:19:42.763Z,48.25
2023-01-25T07:22:09.350Z,49.42
2023-01-25T07:24:36.020Z,44.70
2023-01-25T07:27:02.640Z,44.83
2023-01-25T07:29:29.888Z,56.15
2023-01-25T07:31:56.545Z,45.60
2023-01-25T07:34:23.295Z,46.00
2023-01-25T07:36:49.857Z,45.40
2023-01-25T07:39:17.247Z,42.72
2023-01-25T07:41:43.837Z,43.92
2023-01-25T07:44:10.461Z,42.13
2023-01-25T07:46:37.165Z,40.25
2023-01-25T07:49:03.712Z,46.40
2023-01-25T07:51:31.129Z,48.38
2023-01-25T07:53:59.991Z,45.70
2023-01-25T07:56:29.103Z,54.42
2023-01-25T07:58:57.440Z,50.30
2023-01-25T08:01:26.588Z,50.47
2023-01-25T08:03:55.695Z,42.05
2023-01-25T08:06:27.491Z,46.72
2023-01-25T08:08:55.301Z,58.65
2023-01-25T08:11:24.686Z,49.63
2023-01-25T08:13:51.577Z,56.65
2023-01-25T08:16:20.764Z,52.80
2023-01-25T08:18:49.917Z,54.58
2023-01-25T08:21:16.526Z,47.28
2023-01-25T08:23:43.080Z,46.75
2023-01-25T08:26:15.491Z,47.50
2023-01-25T08:28:45.469Z,51.58
2023-01-25T08:31:16.896Z,47.33
2023-01-25T08:33:46.024Z,48.25
2023-01-25T08:36:14.266Z,56.17
2023-01-25T08:38:41.442Z,59.10
2023-01-25T08:41:10.667Z,45.85
2023-01-25T08:43:37.739Z,49.20
2023-01-25T08:46:05.111Z,47.15
2023-01-25T08:48:31.716Z,43.88
2023-01-25T08:50:59.018Z,42.55
2023-01-25T08:53:28.197Z,45.28
2023-01-25T08:55:54.863Z,46.63
2023-01-25T08:58:22.535Z,41.40
2023-01-25T09:00:49.777Z,43.30
2023-01-25T09:03:18.181Z,43.65
2023-01-25T09:05:44.922Z,41.85
2023-01-25T09:08:11.628Z,45.10
2023-01-25T09:10:38.302Z,43.42
2023-01-25T09:13:07.561Z,44.42
2023-01-25T09:15:34.967Z,46.00
2023-01-25T09:18:01.621Z,45.50
2023-01-25T09:20:29.460Z,41.85
2023-01-25T09:22:59.555Z,45.45
2023-01-25T09:25:26.192Z,47.70
2023-01-25T09:27:52.761Z,45.80
2023-01-25T09:30:19.717Z,50.05
2023-01-25T09:32:50.048Z,45.60
2023-01-25T09:35:17.210Z,48.95
2023-01-25T09:37:43.736Z,47.95
2023-01-25T09:40:21.021Z,48.45
2023-01-25T09:43:00.700Z,48.00
2023-01-25T09:45:36.752Z,44.15
2023-01-25T09:48:13.607Z,41.35
2023-01-25T09:50:50.204Z,43.45
2023-01-25T09:53:16.748Z,42.72
2023-01-25T09:55:44.492Z,47.70
2023-01-25T09:58:19.788Z,51.25
2023-01-25T10:00:48.201Z,44.60
2023-01-25T10:03:32.342Z,48.63
2023-01-25T10:06:01.848Z,45.42
2023-01-25T10:08:33.539Z,39.15
2023-01-25T10:11:08.841Z,38.13
2023-01-25T10:13:35.443Z,38.72
2023-01-25T10:16:14.636Z,46.25
2023-01-25T10:18:45.394Z,40.40
2023-01-25T10:21:20.881Z,41.67
2023-01-25T10:24:02.831Z,38.90
2023-01-25T10:26:34.355Z,40.60
2023-01-25T10:29:22.924Z,42.50
2023-01-25T10:31:53.627Z,37.70
2023-01-25T10:34:26.049Z,34.58
2023-01-25T10:36:56.498Z,40.33
2023-01-25T10:39:23.818Z,38.15
2023-01-25T10:41:59.318Z,45.53
2023-01-25T10:44:26.293Z,39.00
2023-01-25T10:47:08.198Z,33.15
2023-01-25T10:49:35.750Z,39.92
2023-01-25T10:52:19.254Z,44.67
2023-01-25T10:54:47.118Z,45.00
2023-01-25T10:57:18.814Z,48.67
2023-01-25T10:59:49.180Z,43.35
2023-01-25T11:02:46.253Z,44.42
2023-01-25T11:05:25.926Z,41.05
2023-01-25T11:07:52.905Z,42.00
2023-01-25T11:10:37.295Z,55.50
2023-01-25T11:13:20.897Z,48.63
2023-01-25T11:15:52.181Z,46.45
2023-01-25T11:18:25.690Z,38.78
2023-01-25T11:21:12.342Z,39.17
2023-01-25T11:23:38.953Z,37.58
2023-01-25T11:26:15.099Z,36.92
2023-01-25T11:28:42.254Z,28.55
2023-01-25T11:31:13.215Z,32.95
2023-01-25T11:33:40.720Z,36.65
2023-01-25T11:36:31.642Z,33.05
2023-01-25T11:39:14.462Z,37.65
2023-01-25T11:42:06.960Z,34.78
2023-01-25T11:44:43.441Z,41.85
2023-01-25T11:49:59.755Z,49.20
2023-01-25T11:52:43.734Z,40.60
2023-01-25T11:55:26.508Z,41.92
2023-01-25T11:58:08.259Z,49.47
2023-01-25T12:01:01.733Z,46.22
2023-01-25T12:03:43.643Z,44.97
2023-01-25T12:06:15.982Z,44.05
2023-01-25T12:08:52.541Z,40.08
2023-01-25T12:11:43.489Z,45.20
2023-01-25T12:14:25.284Z,36.55
2023-01-25T12:17:08.551Z,46.95
2023-01-25T12:19:45.491Z,37.55
2023-01-25T12:22:24.372Z,42.58
2023-01-25T12:25:21.833Z,43.67
2023-01-25T12:30:43.595Z,42.95
2023-01-25T12:33:28.580Z,50.72
2023-01-25T12:36:01.587Z,44.97
2023-01-25T12:38:44.616Z,48.65
2023-01-25T12:41:30.178Z,42.97
2023-01-25T12:44:15.849Z,47.25
2023-01-25T12:46:50.864Z,42.67
2023-01-25T12:49:28.506Z,56.05
2023-01-25T12:51:59.040Z,39.85
2023-01-25T12:54:32.921Z,38.28
2023-01-25T12:57:25.505Z,36.17
2023-01-25T12:59:59.433Z,38.92
2023-01-25T13:02:42.406Z,39.47
2023-01-25T13:05:29.439Z,39.88
2023-01-25T13:08:03.075Z,34.55
2023-01-25T13:10:39.320Z,37.03
2023-01-25T13:13:21.308Z,36.92
2023-01-25T13:15:48.618Z,42.00
2023-01-25T13:18:32.558Z,38.38
2023-01-25T13:21:03.902Z,36.28
2023-01-25T13:23:31.350Z,30.70
2023-01-25T13:26:28.475Z,30.50
2023-01-25T13:28:57.958Z,36.35
2023-01-25T13:31:53.349Z,35.78
2023-01-25T13:34:36.577Z,51.85
2023-01-25T13:37:18.204Z,49.10
2023-01-25T13:39:49.655Z,46.03
2023-01-25T13:42:23.570Z,37.45
2023-01-25T13:44:54.570Z,41.90
2023-01-25T13:47:24.359Z,40.15
2023-01-25T13:50:04.268Z,40.28
2023-01-25T13:52:32.340Z,44.17
2023-01-25T13:55:00.058Z,35.13
2023-01-25T13:57:31.860Z,34.90
2023-01-25T14:00:10.575Z,32.58
2023-01-25T14:02:40.396Z,34.85
2023-01-25T14:05:17.974Z,33.83
2023-01-25T14:07:47.550Z,33.30
2023-01-25T14:10:23.360Z,32.70
2023-01-25T14:12:51.910Z,33.33
2023-01-25T14:15:23.301Z,38.97
2023-01-25T14:18:14.337Z,31.10
2023-01-25T14:20:41.818Z,30.80
2023-01-25T14:23:28.067Z,34.90
2023-01-25T14:25:58.635Z,33.95
2023-01-25T14:28:27.086Z,30.85
2023-01-25T14:30:56.840Z,35.53
2023-01-25T14:33:29.763Z,33.50
2023-01-25T14:36:16.379Z,35.08
2023-01-25T14:38:50.876Z,31.92
2023-01-25T14:41:22.546Z,32.20
2023-01-25T14:43:51.959Z,36.38
2023-01-25T14:46:34.744Z,38.60
2023-01-25T14:49:25.651Z,41.60
2023-01-25T14:52:05.879Z,32.97
2023-01-25T14:54:44.580Z,36.83
2023-01-25T14:57:40.701Z,36.05
2023-01-25T15:00:19.712Z,37.05
2023-01-25T15:02:49.851Z,47.13
2023-01-25T15:05:20.331Z,38.58
2023-01-25T15:07:49.085Z,35.70
2023-01-25T15:10:17.720Z,39.08
2023-01-25T15:13:07.635Z,41.67
2023-01-25T15:15:55.319Z,35.58
2023-01-25T15:18:46.270Z,38.70
2023-01-25T15:21:19.584Z,38.25
2023-01-25T15:23:48.352Z,37.80
2023-01-25T15:26:20.976Z,41.05
2023-01-25T15:28:48.761Z,40.60
2023-01-25T15:31:20.972Z,40.38
2023-01-25T15:33:47.779Z,34.40
2023-01-25T15:36:15.067Z,42.53
2023-01-25T15:38:42.141Z,40.85
2023-01-25T15:41:09.549Z,43.28
2023-01-25T15:43:36.162Z,43.50
2023-01-25T15:46:05.614Z,36.55
2023-01-25T15:48:36.602Z,39.17
2023-01-25T15:51:03.707Z,37.97
2023-01-25T15:53:30.385Z,39.53
2023-01-25T15:56:02.014Z,33.45
2023-01-25T15:58:36.485Z,41.47
2023-01-25T16:01:03.646Z,39.53
2023-01-25T16:03:32.437Z,42.15
2023-01-25T16:06:05.881Z,40.70
2023-01-25T16:08:33.558Z,36.72
2023-01-25T16:11:00.369Z,31.77
2023-01-25T16:13:26.937Z,48.72
2023-01-25T16:15:56.738Z,44.08
2023-01-25T16:18:23.325Z,35.03
2023-01-25T16:20:50.203Z,37.13
2023-01-25T16:23:16.840Z,39.75
2023-01-25T16:25:47.440Z,35.97
2023-01-25T16:28:19.229Z,51.03
2023-01-25T16:30:49.840Z,35.53
2023-01-25T16:33:16.510Z,43.38
2023-01-25T16:35:43.087Z,35.58
2023-01-25T16:38:11.646Z,36.70
2023-01-25T16:40:39.717Z,37.45
2023-01-25T16:43:06.567Z,38.42
2023-01-25T16:45:33.321Z,37.95
2023-01-25T16:48:01.940Z,35.72
2023-01-25T16:50:28.697Z,38.35
2023-01-25T16:52:56.211Z,45.35
2023-01-25T16:55:22.794Z,46.00
2023-01-25T16:57:51.303Z,37.67
2023-01-25T17:00:18.253Z,41.10
2023-01-25T17:02:58.272Z,40.42
2023-01-25T17:05:33.586Z,37.72
2023-01-25T17:08:00.415Z,47.70
2023-01-25T17:10:27.116Z,39.80
2023-01-25T17:12:53.744Z,39.50
2023-01-25T17:15:20.559Z,43.08
2023-01-25T17:17:47.172Z,40.10
2023-01-25T17:20:13.791Z,44.80
2023-01-25T17:22:41.973Z,45.92
2023-01-25T17:25:08.660Z,46.85
2023-01-25T17:27:35.296Z,40.75
2023-01-25T17:30:02.059Z,46.47
2023-01-25T17:32:28.808Z,40.90
2023-01-25T17:34:59.017Z,45.03
2023-01-25T17:37:25.918Z,49.10
2023-01-25T17:39:52.828Z,43.30
2023-01-25T17:42:19.529Z,40.47
2023-01-25T17:44:46.112Z,46.03
2023-01-25T17:47:12.719Z,51.30
2023-01-25T17:49:39.282Z,45.42
2023-01-25T17:52:06.146Z,48.22
2023-01-25T17:54:32.803Z,49.72
2023-01-25T17:56:59.697Z,48.40
2023-01-25T17:59:26.320Z,47.53
2023-01-25T18:01:53.002Z,48.08
2023-01-25T18:04:20.729Z,52.97
2023-01-25T18:06:47.354Z,48.88
2023-01-25T18:09:14.324Z,41.47
2023-01-25T18:11:41.110Z,53.75
2023-01-25T18:14:12.048Z,44.03
2023-01-25T18:16:40.170Z,39.30
2023-01-25T18:19:07.850Z,42.90
2023-01-25T18:21:35.213Z,44.10
2023-01-25T18:24:07.850Z,41.33
2023-01-25T18:26:37.178Z,43.72
2023-01-25T18:29:34.073Z,42.38
2023-01-25T18:32:00.824Z,40.08
2023-01-25T18:34:27.489Z,50.30
2023-01-25T18:36:59.282Z,46.33
2023-01-25T18:39:26.578Z,40.13
2023-01-25T18:41:53.204Z,43.85
2023-01-25T18:44:19.922Z,43.30
2023-01-25T18:46:48.000Z,37.88
2023-01-25T18:49:14.688Z,41.15
2023-01-25T18:52:01.808Z,42.40
2023-01-25T18:56:55.523Z,47.15
2023-01-25T18:59:22.129Z,52.35
2023-01-25T19:01:48.816Z,46.42
2023-01-25T19:04:15.678Z,47.20
2023-01-25T19:06:42.274Z,47.35
2023-01-25T19:09:08.918Z,46.72
2023-01-25T19:11:35.528Z,42.35
2023-01-25T19:14:02.180Z,46.28
2023-01-25T19:16:28.804Z,47.35
2023-01-25T19:18:55.381Z,47.97
2023-01-25T19:21:24.898Z,51.50
2023-01-25T19:23:52.962Z,59.50
2023-01-25T19:26:21.890Z,49.35
2023-01-25T19:28:48.967Z,55.53
2023-01-25T19:31:18.913Z,46.72
2023-01-25T19:33:46.396Z,45.95
2023-01-25T19:36:16.746Z,50.90
2023-01-25T19:38:43.795Z,49.08
2023-01-25T19:41:13.686Z,51.50
2023-01-25T19:43:42.766Z,48.70
2023-01-25T19:46:12.645Z,67.85
2023-01-25T19:48:41.076Z,49.88
2023-01-25T19:51:18.575Z,58.63
2023-01-25T19:53:47.494Z,52.85
2023-01-25T19:56:16.187Z,58.85
2023-01-25T19:58:43.731Z,48.22
2023-01-25T20:01:13.920Z,49.85
2023-01-25T20:03:41.805Z,45.83
2023-01-25T20:06:09.750Z,45.20
2023-01-25T20:08:38.740Z,49.65
2023-01-25T20:11:11.067Z,47.58
2023-01-25T20:13:38.223Z,54.85
2023-01-25T20:16:05.404Z,49.42
2023-01-25T20:18:32.403Z,55.78
2023-01-25T20:21:01.369Z,54.33
2023-01-25T20:23:32.456Z,57.50
2023-01-25T20:26:01.940Z,43.83
2023-01-25T20:28:32.077Z,47.97
2023-01-25T20:31:04.266Z,47.38
2023-01-25T20:33:32.775Z,41.35
2023-01-25T20:36:01.431Z,43.65
2023-01-25T20:38:32.822Z,46.05
2023-01-25T20:41:01.040Z,50.47
2023-01-25T20:43:29.562Z,46.17
2023-01-25T20:45:56.657Z,45.10
2023-01-25T20:48:24.182Z,46.17
2023-01-25T20:50:50.791Z,44.65
2023-01-25T20:53:18.040Z,48.95
2023-01-25T20:55:45.279Z,44.83
2023-01-25T20:58:12.077Z,46.13
2023-01-25T21:00:38.827Z,42.75
2023-01-25T21:03:05.472Z,41.53
2023-01-25T21:05:32.073Z,46.08
2023-01-25T21:07:58.626Z,37.85
2023-01-25T21:10:25.275Z,41.95
2023-01-25T21:12:51.854Z,44.50
2023-01-25T21:15:18.540Z,45.20
2023-01-25T21:17:45.134Z,45.08
2023-01-25T21:20:11.861Z,48.97
2023-01-25T21:22:38.477Z,48.45
2023-01-25T21:25:05.277Z,61.42
2023-01-25T21:27:31.871Z,50.88
2023-01-25T21:29:58.517Z,44.00
2023-01-25T21:32:25.587Z,53.53
2023-01-25T21:34:52.265Z,47.67
2023-01-25T21:37:18.878Z,51.03
2023-01-25T21:39:45.468Z,53.20
2023-01-25T21:42:12.011Z,53.63
2023-01-25T21:44:53.835Z,49.75
2023-01-25T21:47:29.876Z,48.85
2023-01-25T21:50:17.116Z,48.35
2023-01-25T21:52:43.686Z,70.40
2023-01-25T21:55:10.302Z,61.22
2023-01-25T21:57:36.883Z,64.90
2023-01-25T22:00:05.452Z,50.67
2023-01-25T22:02:32.495Z,50.58
2023-01-25T22:04:59.038Z,57.85
2023-01-25T22:07:25.672Z,53.63
2023-01-25T22:09:52.232Z,52.92
2023-01-25T22:12:18.945Z,58.20
2023-01-25T22:14:45.533Z,54.35
2023-01-25T22:17:12.122Z,52.50
2023-01-25T22:19:38.734Z,55.95
2023-01-25T22:22:05.327Z,55.47
2023-01-25T22:24:31.893Z,61.20
2023-01-25T22:27:16.612Z,60.75
2023-01-25T22:29:43.217Z,49.08
2023-01-25T22:32:09.770Z,58.28
2023-01-25T22:34:36.439Z,60.42
2023-01-25T22:37:02.997Z,53.33
2023-01-25T22:39:29.587Z,51.67
2023-01-25T22:41:56.526Z,60.13
2023-01-25T22:44:23.101Z,61.40
2023-01-25T22:46:50.662Z,54.22
2023-01-25T22:49:17.337Z,61.10
2023-01-25T22:51:43.950Z,52.75
2023-01-25T22:54:10.531Z,56.38
2023-01-25T22:56:37.115Z,53.75
2023-01-25T22:59:03.705Z,51.60
2023-01-25T23:01:33.216Z,54.10
2023-01-25T23:04:00.714Z,56.45
2023-01-25T23:06:30.409Z,50.17
2023-01-25T23:09:00.042Z,52.53
2023-01-25T23:11:32.314Z,53.55
2023-01-25T23:14:15.194Z,52.20
2023-01-25T23:16:42.688Z,55.75
2023-01-25T23:19:10.038Z,47.47
2023-01-25T23:21:36.634Z,52.75
2023-01-25T23:24:03.920Z,56.95
2023-01-25T23:26:37.573Z,52.38
2023-01-25T23:29:07.594Z,52.35
2023-01-25T23:31:34.374Z,47.25
2023-01-25T23:34:03.625Z,47.38
2023-01-25T23:36:32.609Z,54.58
2023-01-25T23:38:59.602Z,53.53
2023-01-25T23:41:28.574Z,50.40
2023-01-25T23:43:55.980Z,64.15
2023-01-25T23:46:23.478Z,49.40
2023-01-25T23:48:50.842Z,55.08
2023-01-25T23:51:18.229Z,51.47
2023-01-25T23:53:45.068Z,50.97
2023-01-25T23:56:16.878Z,50.95
2023-01-25T23:58:44.333Z,49.67
